sensor_id;sensor_type;location;lat;lon;timestamp;temperature;humidity
22734;DHT22;11534;51.994;5.692;2024-02-26T00:00:32;5.00;99.90
22734;DHT22;11534;51.994;5.692;2024-02-26T00:03:00;5.00;99.90
22734;DHT22;11534;51.994;5.692;2024-02-26T00:05:26;5.00;99.90
22734;DHT22;11534;51.994;5.692;2024-02-26T00:07:52;5.00;99.90
22734;DHT22;11534;51.994;5.692;2024-02-26T00:10:17;5.00;99.90
22734;DHT22;11534;51.994;5.692;2024-02-26T00:12:43;5.00;99.90
22734;DHT22;11534;51.994;5.692;2024-02-26T00:15:09;5.00;99.90
22734;DHT22;11534;51.994;5.692;2024-02-26T00:17:35;4.90;99.90
22734;DHT22;11534;51.994;5.692;2024-02-26T00:20:02;4.90;99.90
22734;DHT22;11534;51.994;5.692;2024-02-26T00:22:30;4.90;99.90
22734;DHT22;11534;51.994;5.692;2024-02-26T00:24:56;4.90;99.90
22734;DHT22;11534;51.994;5.692;2024-02-26T00:27:22;4.90;99.90
22734;DHT22;11534;51.994;5.692;2024-02-26T00:29:47;4.90;99.90
22734;DHT22;11534;51.994;5.692;2024-02-26T00:32:13;4.90;99.90
22734;DHT22;11534;51.994;5.692;2024-02-26T00:34:39;4.90;99.90
22734;DHT22;11534;51.994;5.692;2024-02-26T00:37:05;4.80;99.90
22734;DHT22;11534;51.994;5.692;2024-02-26T00:39:30;4.90;99.90
22734;DHT22;11534;51.994;5.692;2024-02-26T00:41:56;4.80;99.90
22734;DHT22;11534;51.994;5.692;2024-02-26T00:44:22;4.90;99.90
22734;DHT22;11534;51.994;5.692;2024-02-26T00:46:48;4.90;99.90
22734;DHT22;11534;51.994;5.692;2024-02-26T00:49:13;4.90;99.90
22734;DHT22;11534;51.994;5.692;2024-02-26T00:51:39;4.90;99.90
22734;DHT22;11534;51.994;5.692;2024-02-26T00:54:04;4.90;99.90
22734;DHT22;11534;51.994;5.692;2024-02-26T00:56:30;4.90;99.90
22734;DHT22;11534;51.994;5.692;2024-02-26T00:58:55;4.90;99.90
22734;DHT22;11534;51.994;5.692;2024-02-26T01:01:21;4.90;99.90
22734;DHT22;11534;51.994;5.692;2024-02-26T01:03:47;4.90;99.90
22734;DHT22;11534;51.994;5.692;2024-02-26T01:06:12;4.90;99.90
22734;DHT22;11534;51.994;5.692;2024-02-26T01:08:38;4.90;99.90
22734;DHT22;11534;51.994;5.692;2024-02-26T01:11:04;5.00;99.90
22734;DHT22;11534;51.994;5.692;2024-02-26T01:13:30;4.90;99.90
22734;DHT22;11534;51.994;5.692;2024-02-26T01:15:55;4.90;99.90
22734;DHT22;11534;51.994;5.692;2024-02-26T01:18:21;4.90;99.90
22734;DHT22;11534;51.994;5.692;2024-02-26T01:20:47;4.90;99.90
22734;DHT22;11534;51.994;5.692;2024-02-26T01:23:13;4.90;99.90
22734;DHT22;11534;51.994;5.692;2024-02-26T01:25:38;4.90;99.90
22734;DHT22;11534;51.994;5.692;2024-02-26T01:28:05;4.90;99.90
22734;DHT22;11534;51.994;5.692;2024-02-26T01:30:31;4.90;99.90
22734;DHT22;11534;51.994;5.692;2024-02-26T01:32:57;4.90;99.90
22734;DHT22;11534;51.994;5.692;2024-02-26T01:35:22;4.90;99.90
22734;DHT22;11534;51.994;5.692;2024-02-26T01:37:48;5.00;99.90
22734;DHT22;11534;51.994;5.692;2024-02-26T01:40:14;4.90;99.90
22734;DHT22;11534;51.994;5.692;2024-02-26T01:42:44;4.90;99.90
22734;DHT22;11534;51.994;5.692;2024-02-26T01:45:16;5.00;99.90
22734;DHT22;11534;51.994;5.692;2024-02-26T01:47:49;5.00;99.90
22734;DHT22;11534;51.994;5.692;2024-02-26T01:50:15;5.00;99.90
22734;DHT22;11534;51.994;5.692;2024-02-26T01:52:41;5.00;99.90
22734;DHT22;11534;51.994;5.692;2024-02-26T01:55:07;5.00;99.90
22734;DHT22;11534;51.994;5.692;2024-02-26T01:57:33;5.00;99.90
22734;DHT22;11534;51.994;5.692;2024-02-26T01:59:59;5.00;99.90
22734;DHT22;11534;51.994;5.692;2024-02-26T02:02:25;5.00;99.90
22734;DHT22;11534;51.994;5.692;2024-02-26T02:04:51;5.10;99.90
22734;DHT22;11534;51.994;5.692;2024-02-26T02:07:18;5.00;99.90
22734;DHT22;11534;51.994;5.692;2024-02-26T02:09:44;5.10;99.90
22734;DHT22;11534;51.994;5.692;2024-02-26T02:12:11;5.10;99.90
22734;DHT22;11534;51.994;5.692;2024-02-26T02:14:36;5.10;99.90
22734;DHT22;11534;51.994;5.692;2024-02-26T02:17:02;5.10;99.90
22734;DHT22;11534;51.994;5.692;2024-02-26T02:19:28;5.10;99.90
22734;DHT22;11534;51.994;5.692;2024-02-26T02:21:53;5.10;99.90
22734;DHT22;11534;51.994;5.692;2024-02-26T02:24:19;5.10;99.90
22734;DHT22;11534;51.994;5.692;2024-02-26T02:26:45;5.10;99.90
22734;DHT22;11534;51.994;5.692;2024-02-26T02:29:11;5.20;99.90
22734;DHT22;11534;51.994;5.692;2024-02-26T02:31:37;5.20;99.90
22734;DHT22;11534;51.994;5.692;2024-02-26T02:34:03;5.10;99.90
22734;DHT22;11534;51.994;5.692;2024-02-26T02:36:29;5.10;99.90
22734;DHT22;11534;51.994;5.692;2024-02-26T02:38:54;5.10;99.90
22734;DHT22;11534;51.994;5.692;2024-02-26T02:41:20;5.10;99.90
22734;DHT22;11534;51.994;5.692;2024-02-26T02:43:46;5.10;99.90
22734;DHT22;11534;51.994;5.692;2024-02-26T02:46:11;5.10;99.90
22734;DHT22;11534;51.994;5.692;2024-02-26T02:48:37;5.10;99.90
22734;DHT22;11534;51.994;5.692;2024-02-26T02:51:04;5.10;99.90
22734;DHT22;11534;51.994;5.692;2024-02-26T02:53:30;5.10;99.90
22734;DHT22;11534;51.994;5.692;2024-02-26T02:55:55;5.10;99.90
22734;DHT22;11534;51.994;5.692;2024-02-26T02:58:21;5.10;99.90
22734;DHT22;11534;51.994;5.692;2024-02-26T03:00:47;5.10;99.90
22734;DHT22;11534;51.994;5.692;2024-02-26T03:03:12;5.10;99.90
22734;DHT22;11534;51.994;5.692;2024-02-26T03:05:38;5.00;99.90
22734;DHT22;11534;51.994;5.692;2024-02-26T03:08:04;5.10;99.90
22734;DHT22;11534;51.994;5.692;2024-02-26T03:10:29;5.10;99.90
22734;DHT22;11534;51.994;5.692;2024-02-26T03:12:55;5.00;99.90
22734;DHT22;11534;51.994;5.692;2024-02-26T03:15:21;5.10;99.90
22734;DHT22;11534;51.994;5.692;2024-02-26T03:17:47;5.10;99.90
22734;DHT22;11534;51.994;5.692;2024-02-26T03:20:13;5.10;99.90
22734;DHT22;11534;51.994;5.692;2024-02-26T03:22:39;5.10;99.90
22734;DHT22;11534;51.994;5.692;2024-02-26T03:25:06;5.00;99.90
22734;DHT22;11534;51.994;5.692;2024-02-26T03:27:32;5.10;99.90
22734;DHT22;11534;51.994;5.692;2024-02-26T03:29:58;5.10;99.90
22734;DHT22;11534;51.994;5.692;2024-02-26T03:32:23;5.10;99.90
22734;DHT22;11534;51.994;5.692;2024-02-26T03:34:49;5.00;99.90
22734;DHT22;11534;51.994;5.692;2024-02-26T03:37:15;5.10;99.90
22734;DHT22;11534;51.994;5.692;2024-02-26T03:39:40;5.10;99.90
22734;DHT22;11534;51.994;5.692;2024-02-26T03:42:06;5.10;99.90
22734;DHT22;11534;51.994;5.692;2024-02-26T03:44:32;5.20;99.90
22734;DHT22;11534;51.994;5.692;2024-02-26T03:46:57;5.10;99.90
22734;DHT22;11534;51.994;5.692;2024-02-26T03:49:23;5.00;99.90
22734;DHT22;11534;51.994;5.692;2024-02-26T03:51:49;5.10;99.90
22734;DHT22;11534;51.994;5.692;2024-02-26T03:54:14;5.10;99.90
22734;DHT22;11534;51.994;5.692;2024-02-26T03:56:40;5.10;99.90
22734;DHT22;11534;51.994;5.692;2024-02-26T03:59:06;5.20;99.90
22734;DHT22;11534;51.994;5.692;2024-02-26T04:01:31;5.10;99.90
22734;DHT22;11534;51.994;5.692;2024-02-26T04:03:57;5.10;99.90
22734;DHT22;11534;51.994;5.692;2024-02-26T04:06:23;5.10;99.90
22734;DHT22;11534;51.994;5.692;2024-02-26T04:08:48;5.20;99.90
22734;DHT22;11534;51.994;5.692;2024-02-26T04:11:14;5.10;99.90
22734;DHT22;11534;51.994;5.692;2024-02-26T04:13:43;5.10;99.90
22734;DHT22;11534;51.994;5.692;2024-02-26T04:16:11;5.10;99.90
22734;DHT22;11534;51.994;5.692;2024-02-26T04:18:37;5.10;99.90
22734;DHT22;11534;51.994;5.692;2024-02-26T04:21:04;5.10;99.90
22734;DHT22;11534;51.994;5.692;2024-02-26T04:23:31;5.10;99.90
22734;DHT22;11534;51.994;5.692;2024-02-26T04:25:56;5.10;99.90
22734;DHT22;11534;51.994;5.692;2024-02-26T04:28:22;5.10;99.90
22734;DHT22;11534;51.994;5.692;2024-02-26T04:30:50;5.00;99.90
22734;DHT22;11534;51.994;5.692;2024-02-26T04:33:16;5.00;99.90
22734;DHT22;11534;51.994;5.692;2024-02-26T04:35:42;5.00;99.90
22734;DHT22;11534;51.994;5.692;2024-02-26T04:38:08;5.00;99.90
22734;DHT22;11534;51.994;5.692;2024-02-26T04:40:33;5.00;99.90
22734;DHT22;11534;51.994;5.692;2024-02-26T04:42:59;4.90;99.90
22734;DHT22;11534;51.994;5.692;2024-02-26T04:45:24;5.00;99.90
22734;DHT22;11534;51.994;5.692;2024-02-26T04:47:50;5.00;99.90
22734;DHT22;11534;51.994;5.692;2024-02-26T04:50:16;4.90;99.90
22734;DHT22;11534;51.994;5.692;2024-02-26T04:52:42;5.00;99.90
22734;DHT22;11534;51.994;5.692;2024-02-26T04:55:07;5.00;99.90
22734;DHT22;11534;51.994;5.692;2024-02-26T04:57:33;4.90;99.90
22734;DHT22;11534;51.994;5.692;2024-02-26T04:59:59;4.90;99.90
22734;DHT22;11534;51.994;5.692;2024-02-26T05:02:24;5.00;99.90
22734;DHT22;11534;51.994;5.692;2024-02-26T05:04:50;5.00;99.90
22734;DHT22;11534;51.994;5.692;2024-02-26T05:07:16;5.00;99.90
22734;DHT22;11534;51.994;5.692;2024-02-26T05:09:44;4.90;99.90
22734;DHT22;11534;51.994;5.692;2024-02-26T05:12:10;4.90;99.90
22734;DHT22;11534;51.994;5.692;2024-02-26T05:14:36;4.90;99.90
22734;DHT22;11534;51.994;5.692;2024-02-26T05:17:01;5.00;99.90
22734;DHT22;11534;51.994;5.692;2024-02-26T05:19:27;5.00;99.90
22734;DHT22;11534;51.994;5.692;2024-02-26T05:21:53;4.90;99.90
22734;DHT22;11534;51.994;5.692;2024-02-26T05:24:18;4.90;99.90
22734;DHT22;11534;51.994;5.692;2024-02-26T05:26:47;5.00;99.90
22734;DHT22;11534;51.994;5.692;2024-02-26T05:29:13;4.90;99.90
22734;DHT22;11534;51.994;5.692;2024-02-26T05:31:39;4.90;99.90
22734;DHT22;11534;51.994;5.692;2024-02-26T05:34:05;5.00;99.90
22734;DHT22;11534;51.994;5.692;2024-02-26T05:36:30;4.90;99.90
22734;DHT22;11534;51.994;5.692;2024-02-26T05:38:59;4.90;99.90
22734;DHT22;11534;51.994;5.692;2024-02-26T05:41:25;4.90;99.90
22734;DHT22;11534;51.994;5.692;2024-02-26T05:43:52;4.90;99.90
22734;DHT22;11534;51.994;5.692;2024-02-26T05:46:19;4.90;99.90
22734;DHT22;11534;51.994;5.692;2024-02-26T05:48:47;5.00;99.90
22734;DHT22;11534;51.994;5.692;2024-02-26T05:51:13;4.90;99.90
22734;DHT22;11534;51.994;5.692;2024-02-26T05:53:40;4.90;99.90
22734;DHT22;11534;51.994;5.692;2024-02-26T05:56:06;4.90;99.90
22734;DHT22;11534;51.994;5.692;2024-02-26T05:58:32;4.90;99.90
22734;DHT22;11534;51.994;5.692;2024-02-26T06:00:58;4.90;99.90
22734;DHT22;11534;51.994;5.692;2024-02-26T06:03:23;5.00;99.90
22734;DHT22;11534;51.994;5.692;2024-02-26T06:05:49;4.90;99.90
22734;DHT22;11534;51.994;5.692;2024-02-26T06:08:14;4.90;99.90
22734;DHT22;11534;51.994;5.692;2024-02-26T06:10:40;5.00;99.90
22734;DHT22;11534;51.994;5.692;2024-02-26T06:13:06;4.90;99.90
22734;DHT22;11534;51.994;5.692;2024-02-26T06:15:31;4.90;99.90
22734;DHT22;11534;51.994;5.692;2024-02-26T06:17:57;4.90;99.90
22734;DHT22;11534;51.994;5.692;2024-02-26T06:20:23;5.00;99.90
22734;DHT22;11534;51.994;5.692;2024-02-26T06:22:48;4.90;99.90
22734;DHT22;11534;51.994;5.692;2024-02-26T06:25:14;5.00;99.90
22734;DHT22;11534;51.994;5.692;2024-02-26T06:27:39;5.00;99.90
22734;DHT22;11534;51.994;5.692;2024-02-26T06:30:05;5.00;99.90
22734;DHT22;11534;51.994;5.692;2024-02-26T06:32:31;5.00;99.90
22734;DHT22;11534;51.994;5.692;2024-02-26T06:34:57;5.00;99.90
22734;DHT22;11534;51.994;5.692;2024-02-26T06:37:23;5.00;99.90
22734;DHT22;11534;51.994;5.692;2024-02-26T06:39:51;5.00;99.90
22734;DHT22;11534;51.994;5.692;2024-02-26T06:42:17;5.10;99.90
22734;DHT22;11534;51.994;5.692;2024-02-26T06:44:43;5.00;99.90
22734;DHT22;11534;51.994;5.692;2024-02-26T06:47:09;5.00;99.90
22734;DHT22;11534;51.994;5.692;2024-02-26T06:49:34;5.00;99.90
22734;DHT22;11534;51.994;5.692;2024-02-26T06:52:00;5.10;99.90
22734;DHT22;11534;51.994;5.692;2024-02-26T06:54:26;5.10;99.90
22734;DHT22;11534;51.994;5.692;2024-02-26T06:56:51;5.10;99.90
22734;DHT22;11534;51.994;5.692;2024-02-26T06:59:17;5.10;99.90
22734;DHT22;11534;51.994;5.692;2024-02-26T07:01:44;5.00;99.90
22734;DHT22;11534;51.994;5.692;2024-02-26T07:04:09;5.10;99.90
22734;DHT22;11534;51.994;5.692;2024-02-26T07:06:36;5.00;99.90
22734;DHT22;11534;51.994;5.692;2024-02-26T07:09:02;5.10;99.90
22734;DHT22;11534;51.994;5.692;2024-02-26T07:11:27;5.10;99.90
22734;DHT22;11534;51.994;5.692;2024-02-26T07:13:53;5.10;99.90
22734;DHT22;11534;51.994;5.692;2024-02-26T07:16:19;5.00;99.90
22734;DHT22;11534;51.994;5.692;2024-02-26T07:18:44;5.00;99.90
22734;DHT22;11534;51.994;5.692;2024-02-26T07:21:11;5.00;99.90
22734;DHT22;11534;51.994;5.692;2024-02-26T07:23:49;5.00;99.90
22734;DHT22;11534;51.994;5.692;2024-02-26T07:26:15;5.00;99.90
22734;DHT22;11534;51.994;5.692;2024-02-26T07:28:45;5.00;99.90
22734;DHT22;11534;51.994;5.692;2024-02-26T07:31:10;5.10;99.90
22734;DHT22;11534;51.994;5.692;2024-02-26T07:33:36;5.10;99.90
22734;DHT22;11534;51.994;5.692;2024-02-26T07:42:40;5.10;99.90
22734;DHT22;11534;51.994;5.692;2024-02-26T07:45:47;5.10;99.90
22734;DHT22;11534;51.994;5.692;2024-02-26T07:48:36;5.10;99.90
22734;DHT22;11534;51.994;5.692;2024-02-26T07:51:12;5.10;99.90
22734;DHT22;11534;51.994;5.692;2024-02-26T07:53:47;5.10;99.90
22734;DHT22;11534;51.994;5.692;2024-02-26T07:56:15;5.10;99.90
22734;DHT22;11534;51.994;5.692;2024-02-26T07:58:40;5.10;99.90
22734;DHT22;11534;51.994;5.692;2024-02-26T08:01:06;5.10;99.90
22734;DHT22;11534;51.994;5.692;2024-02-26T08:03:32;5.10;99.90
22734;DHT22;11534;51.994;5.692;2024-02-26T08:05:58;5.10;99.90
22734;DHT22;11534;51.994;5.692;2024-02-26T08:08:23;5.10;99.90
22734;DHT22;11534;51.994;5.692;2024-02-26T08:10:49;5.20;99.90
22734;DHT22;11534;51.994;5.692;2024-02-26T08:13:15;5.10;99.90
22734;DHT22;11534;51.994;5.692;2024-02-26T08:15:41;5.10;99.90
22734;DHT22;11534;51.994;5.692;2024-02-26T08:18:07;5.10;99.90
22734;DHT22;11534;51.994;5.692;2024-02-26T08:20:33;5.10;99.90
22734;DHT22;11534;51.994;5.692;2024-02-26T08:22:58;5.10;99.90
22734;DHT22;11534;51.994;5.692;2024-02-26T08:25:24;5.10;99.90
22734;DHT22;11534;51.994;5.692;2024-02-26T08:27:50;5.10;99.90
22734;DHT22;11534;51.994;5.692;2024-02-26T08:30:16;5.20;99.90
22734;DHT22;11534;51.994;5.692;2024-02-26T08:32:43;5.10;99.90
22734;DHT22;11534;51.994;5.692;2024-02-26T08:35:09;5.20;99.90
22734;DHT22;11534;51.994;5.692;2024-02-26T08:37:35;5.20;99.90
22734;DHT22;11534;51.994;5.692;2024-02-26T08:40:01;5.20;99.90
22734;DHT22;11534;51.994;5.692;2024-02-26T08:42:26;5.20;99.90
22734;DHT22;11534;51.994;5.692;2024-02-26T08:44:52;5.20;99.90
22734;DHT22;11534;51.994;5.692;2024-02-26T08:47:20;5.20;99.90
22734;DHT22;11534;51.994;5.692;2024-02-26T08:49:45;5.20;99.90
22734;DHT22;11534;51.994;5.692;2024-02-26T08:52:11;5.20;99.90
22734;DHT22;11534;51.994;5.692;2024-02-26T08:54:37;5.20;99.90
22734;DHT22;11534;51.994;5.692;2024-02-26T08:57:03;5.30;99.90
22734;DHT22;11534;51.994;5.692;2024-02-26T08:59:29;5.20;99.90
22734;DHT22;11534;51.994;5.692;2024-02-26T09:01:54;5.30;99.90
22734;DHT22;11534;51.994;5.692;2024-02-26T09:04:20;5.30;99.90
22734;DHT22;11534;51.994;5.692;2024-02-26T09:06:46;5.30;99.90
22734;DHT22;11534;51.994;5.692;2024-02-26T09:09:12;5.30;99.90
22734;DHT22;11534;51.994;5.692;2024-02-26T09:11:38;5.20;99.90
22734;DHT22;11534;51.994;5.692;2024-02-26T09:14:03;5.30;99.90
22734;DHT22;11534;51.994;5.692;2024-02-26T09:16:30;5.30;99.90
22734;DHT22;11534;51.994;5.692;2024-02-26T09:18:56;5.30;99.90
22734;DHT22;11534;51.994;5.692;2024-02-26T09:21:22;5.40;99.90
22734;DHT22;11534;51.994;5.692;2024-02-26T09:23:52;5.40;99.90
22734;DHT22;11534;51.994;5.692;2024-02-26T09:26:17;5.40;99.90
22734;DHT22;11534;51.994;5.692;2024-02-26T09:28:44;5.40;99.90
22734;DHT22;11534;51.994;5.692;2024-02-26T09:31:10;5.40;99.90
22734;DHT22;11534;51.994;5.692;2024-02-26T09:33:36;5.40;99.90
22734;DHT22;11534;51.994;5.692;2024-02-26T09:36:03;5.40;99.90
22734;DHT22;11534;51.994;5.692;2024-02-26T10:26:21;5.50;99.90
22734;DHT22;11534;51.994;5.692;2024-02-26T10:29:13;5.40;99.90
22734;DHT22;11534;51.994;5.692;2024-02-26T10:31:42;5.40;99.90
22734;DHT22;11534;51.994;5.692;2024-02-26T10:34:08;5.50;99.90
22734;DHT22;11534;51.994;5.692;2024-02-26T10:36:34;5.50;99.90
22734;DHT22;11534;51.994;5.692;2024-02-26T10:39:03;5.50;99.90
22734;DHT22;11534;51.994;5.692;2024-02-26T10:41:30;5.60;99.90
22734;DHT22;11534;51.994;5.692;2024-02-26T10:43:55;5.50;99.90
22734;DHT22;11534;51.994;5.692;2024-02-26T10:46:21;5.40;99.90
22734;DHT22;11534;51.994;5.692;2024-02-26T10:48:50;5.50;99.90
22734;DHT22;11534;51.994;5.692;2024-02-26T10:51:24;5.40;99.90
22734;DHT22;11534;51.994;5.692;2024-02-26T10:53:53;5.50;99.90
22734;DHT22;11534;51.994;5.692;2024-02-26T10:56:24;5.40;99.90
22734;DHT22;11534;51.994;5.692;2024-02-26T10:58:51;5.50;99.90
22734;DHT22;11534;51.994;5.692;2024-02-26T11:01:18;5.60;99.90
22734;DHT22;11534;51.994;5.692;2024-02-26T11:03:45;5.60;99.90
22734;DHT22;11534;51.994;5.692;2024-02-26T11:06:12;5.60;99.90
22734;DHT22;11534;51.994;5.692;2024-02-26T11:08:39;5.60;99.90
22734;DHT22;11534;51.994;5.692;2024-02-26T11:11:05;5.60;99.90
22734;DHT22;11534;51.994;5.692;2024-02-26T11:13:36;5.60;99.90
22734;DHT22;11534;51.994;5.692;2024-02-26T11:16:05;5.60;99.90
22734;DHT22;11534;51.994;5.692;2024-02-26T11:18:32;5.60;99.90
22734;DHT22;11534;51.994;5.692;2024-02-26T11:20:59;5.60;99.90
22734;DHT22;11534;51.994;5.692;2024-02-26T11:23:26;5.60;99.90
22734;DHT22;11534;51.994;5.692;2024-02-26T11:25:53;5.60;99.90
22734;DHT22;11534;51.994;5.692;2024-02-26T11:28:21;5.60;99.90
22734;DHT22;11534;51.994;5.692;2024-02-26T11:30:48;5.50;99.90
22734;DHT22;11534;51.994;5.692;2024-02-26T11:33:15;5.60;99.90
22734;DHT22;11534;51.994;5.692;2024-02-26T11:35:41;5.60;99.90
22734;DHT22;11534;51.994;5.692;2024-02-26T11:38:07;5.60;99.90
22734;DHT22;11534;51.994;5.692;2024-02-26T11:40:38;5.60;99.90
22734;DHT22;11534;51.994;5.692;2024-02-26T11:43:07;5.60;99.90
22734;DHT22;11534;51.994;5.692;2024-02-26T11:48:11;5.60;99.90
22734;DHT22;11534;51.994;5.692;2024-02-26T11:50:39;5.60;99.90
22734;DHT22;11534;51.994;5.692;2024-02-26T11:55:45;5.60;99.90
22734;DHT22;11534;51.994;5.692;2024-02-26T11:58:11;5.60;99.90
22734;DHT22;11534;51.994;5.692;2024-02-26T12:00:36;5.60;99.90
22734;DHT22;11534;51.994;5.692;2024-02-26T12:03:02;5.70;99.90
22734;DHT22;11534;51.994;5.692;2024-02-26T12:05:32;5.70;99.90
22734;DHT22;11534;51.994;5.692;2024-02-26T12:08:03;5.60;99.90
22734;DHT22;11534;51.994;5.692;2024-02-26T12:10:34;5.70;99.90
22734;DHT22;11534;51.994;5.692;2024-02-26T12:13:12;5.70;99.90
22734;DHT22;11534;51.994;5.692;2024-02-26T12:15:59;5.70;99.90
22734;DHT22;11534;51.994;5.692;2024-02-26T12:18:25;5.70;99.90
22734;DHT22;11534;51.994;5.692;2024-02-26T12:21:01;5.70;99.90
22734;DHT22;11534;51.994;5.692;2024-02-26T12:23:27;5.70;99.90
22734;DHT22;11534;51.994;5.692;2024-02-26T12:25:54;5.80;99.90
22734;DHT22;11534;51.994;5.692;2024-02-26T12:28:19;5.70;99.90
22734;DHT22;11534;51.994;5.692;2024-02-26T12:30:45;5.70;99.90
22734;DHT22;11534;51.994;5.692;2024-02-26T12:33:11;5.60;99.90
22734;DHT22;11534;51.994;5.692;2024-02-26T12:35:37;5.70;99.90
22734;DHT22;11534;51.994;5.692;2024-02-26T12:38:03;5.70;99.90
22734;DHT22;11534;51.994;5.692;2024-02-26T12:40:29;5.70;99.90
22734;DHT22;11534;51.994;5.692;2024-02-26T12:42:55;5.70;99.90
22734;DHT22;11534;51.994;5.692;2024-02-26T12:45:21;5.80;99.90
22734;DHT22;11534;51.994;5.692;2024-02-26T12:47:47;5.70;99.90
22734;DHT22;11534;51.994;5.692;2024-02-26T12:50:15;5.80;99.90
22734;DHT22;11534;51.994;5.692;2024-02-26T12:52:46;5.80;99.90
22734;DHT22;11534;51.994;5.692;2024-02-26T12:55:15;5.80;99.90
22734;DHT22;11534;51.994;5.692;2024-02-26T12:57:43;5.80;99.90
22734;DHT22;11534;51.994;5.692;2024-02-26T13:00:13;5.90;99.90
22734;DHT22;11534;51.994;5.692;2024-02-26T13:02:41;5.90;99.90
22734;DHT22;11534;51.994;5.692;2024-02-26T13:05:11;5.80;99.90
22734;DHT22;11534;51.994;5.692;2024-02-26T13:07:42;5.90;99.90
22734;DHT22;11534;51.994;5.692;2024-02-26T13:10:08;5.90;99.90
22734;DHT22;11534;51.994;5.692;2024-02-26T13:12:34;5.90;99.90
22734;DHT22;11534;51.994;5.692;2024-02-26T13:15:01;6.00;99.90
22734;DHT22;11534;51.994;5.692;2024-02-26T13:17:27;6.00;99.90
22734;DHT22;11534;51.994;5.692;2024-02-26T13:19:54;5.90;99.90
22734;DHT22;11534;51.994;5.692;2024-02-26T13:22:23;5.90;99.90
22734;DHT22;11534;51.994;5.692;2024-02-26T13:24:59;6.00;99.90
22734;DHT22;11534;51.994;5.692;2024-02-26T13:27:25;6.10;99.90
22734;DHT22;11534;51.994;5.692;2024-02-26T13:30:13;6.00;99.90
22734;DHT22;11534;51.994;5.692;2024-02-26T13:32:40;6.10;99.90
22734;DHT22;11534;51.994;5.692;2024-02-26T13:35:10;6.10;99.90
22734;DHT22;11534;51.994;5.692;2024-02-26T13:37:37;6.10;99.90
22734;DHT22;11534;51.994;5.692;2024-02-26T13:42:34;6.10;99.90
22734;DHT22;11534;51.994;5.692;2024-02-26T13:45:00;6.10;99.90
22734;DHT22;11534;51.994;5.692;2024-02-26T13:47:26;6.10;99.90
22734;DHT22;11534;51.994;5.692;2024-02-26T13:49:51;6.10;99.90
22734;DHT22;11534;51.994;5.692;2024-02-26T13:52:17;6.20;99.90
22734;DHT22;11534;51.994;5.692;2024-02-26T13:54:45;6.20;99.90
22734;DHT22;11534;51.994;5.692;2024-02-26T13:57:11;6.30;99.90
22734;DHT22;11534;51.994;5.692;2024-02-26T13:59:37;6.30;99.90
22734;DHT22;11534;51.994;5.692;2024-02-26T14:02:02;6.30;99.90
22734;DHT22;11534;51.994;5.692;2024-02-26T14:04:29;6.30;99.90
22734;DHT22;11534;51.994;5.692;2024-02-26T14:06:54;6.30;99.90
22734;DHT22;11534;51.994;5.692;2024-02-26T14:09:20;6.30;99.90
22734;DHT22;11534;51.994;5.692;2024-02-26T14:11:45;6.30;99.90
22734;DHT22;11534;51.994;5.692;2024-02-26T14:14:11;6.20;99.90
22734;DHT22;11534;51.994;5.692;2024-02-26T14:16:37;6.30;99.90
22734;DHT22;11534;51.994;5.692;2024-02-26T14:19:02;6.30;99.90
22734;DHT22;11534;51.994;5.692;2024-02-26T14:21:29;6.20;99.90
22734;DHT22;11534;51.994;5.692;2024-02-26T14:23:55;6.30;99.90
22734;DHT22;11534;51.994;5.692;2024-02-26T14:26:22;6.30;99.90
22734;DHT22;11534;51.994;5.692;2024-02-26T14:33:57;6.30;99.90
22734;DHT22;11534;51.994;5.692;2024-02-26T14:36:22;6.30;99.90
22734;DHT22;11534;51.994;5.692;2024-02-26T14:38:48;6.30;99.90
22734;DHT22;11534;51.994;5.692;2024-02-26T14:41:14;6.30;99.90
22734;DHT22;11534;51.994;5.692;2024-02-26T14:43:39;6.40;99.90
22734;DHT22;11534;51.994;5.692;2024-02-26T14:46:05;6.40;99.90
22734;DHT22;11534;51.994;5.692;2024-02-26T14:48:31;6.40;99.90
22734;DHT22;11534;51.994;5.692;2024-02-26T14:50:57;6.40;99.90
22734;DHT22;11534;51.994;5.692;2024-02-26T14:53:23;6.50;99.90
22734;DHT22;11534;51.994;5.692;2024-02-26T14:55:48;6.40;99.90
22734;DHT22;11534;51.994;5.692;2024-02-26T14:58:14;6.40;99.90
22734;DHT22;11534;51.994;5.692;2024-02-26T15:00:39;6.40;99.90
22734;DHT22;11534;51.994;5.692;2024-02-26T15:03:05;6.40;99.90
22734;DHT22;11534;51.994;5.692;2024-02-26T15:05:32;6.40;99.90
22734;DHT22;11534;51.994;5.692;2024-02-26T15:07:58;6.40;99.90
22734;DHT22;11534;51.994;5.692;2024-02-26T15:10:24;6.40;99.90
22734;DHT22;11534;51.994;5.692;2024-02-26T15:12:50;6.40;99.90
22734;DHT22;11534;51.994;5.692;2024-02-26T15:15:22;6.40;99.90
22734;DHT22;11534;51.994;5.692;2024-02-26T15:17:48;6.40;99.90
22734;DHT22;11534;51.994;5.692;2024-02-26T15:20:17;6.40;99.90
22734;DHT22;11534;51.994;5.692;2024-02-26T15:22:43;6.40;99.90
22734;DHT22;11534;51.994;5.692;2024-02-26T15:25:09;6.50;99.90
22734;DHT22;11534;51.994;5.692;2024-02-26T15:27:35;6.50;99.90
22734;DHT22;11534;51.994;5.692;2024-02-26T15:30:01;6.40;99.90
22734;DHT22;11534;51.994;5.692;2024-02-26T15:32:27;6.40;99.90
22734;DHT22;11534;51.994;5.692;2024-02-26T15:34:54;6.40;99.90
22734;DHT22;11534;51.994;5.692;2024-02-26T15:37:36;6.40;99.90
22734;DHT22;11534;51.994;5.692;2024-02-26T15:40:01;6.40;99.90
22734;DHT22;11534;51.994;5.692;2024-02-26T15:42:29;6.40;99.90
22734;DHT22;11534;51.994;5.692;2024-02-26T15:44:54;6.40;99.90
22734;DHT22;11534;51.994;5.692;2024-02-26T15:47:25;6.30;99.90
22734;DHT22;11534;51.994;5.692;2024-02-26T15:49:51;6.30;99.90
22734;DHT22;11534;51.994;5.692;2024-02-26T15:52:16;6.30;99.90
22734;DHT22;11534;51.994;5.692;2024-02-26T15:54:42;6.20;99.90
22734;DHT22;11534;51.994;5.692;2024-02-26T15:57:10;6.30;99.90
22734;DHT22;11534;51.994;5.692;2024-02-26T15:59:36;6.20;99.90
22734;DHT22;11534;51.994;5.692;2024-02-26T16:02:02;6.20;99.90
22734;DHT22;11534;51.994;5.692;2024-02-26T16:04:28;6.10;99.90
22734;DHT22;11534;51.994;5.692;2024-02-26T16:06:57;6.10;99.90
22734;DHT22;11534;51.994;5.692;2024-02-26T16:09:24;6.10;99.90
22734;DHT22;11534;51.994;5.692;2024-02-26T16:11:49;6.10;99.90
22734;DHT22;11534;51.994;5.692;2024-02-26T16:17:16;6.10;99.90
22734;DHT22;11534;51.994;5.692;2024-02-26T16:19:43;6.10;99.90
22734;DHT22;11534;51.994;5.692;2024-02-26T16:22:09;6.10;99.90
22734;DHT22;11534;51.994;5.692;2024-02-26T16:24:35;6.10;99.90
22734;DHT22;11534;51.994;5.692;2024-02-26T16:27:00;6.10;99.90
22734;DHT22;11534;51.994;5.692;2024-02-26T16:29:26;6.10;99.90
22734;DHT22;11534;51.994;5.692;2024-02-26T16:31:52;6.10;99.90
22734;DHT22;11534;51.994;5.692;2024-02-26T16:34:17;6.10;99.90
22734;DHT22;11534;51.994;5.692;2024-02-26T16:36:43;6.20;99.90
22734;DHT22;11534;51.994;5.692;2024-02-26T16:39:08;6.10;99.90
22734;DHT22;11534;51.994;5.692;2024-02-26T16:41:34;6.10;99.90
22734;DHT22;11534;51.994;5.692;2024-02-26T16:44:00;6.10;99.90
22734;DHT22;11534;51.994;5.692;2024-02-26T16:46:26;6.00;99.90
22734;DHT22;11534;51.994;5.692;2024-02-26T16:48:52;6.00;99.90
22734;DHT22;11534;51.994;5.692;2024-02-26T16:51:20;6.00;99.90